Kilbirnie, United Kingdom
Current Conditions -  °F | °C
As of 9:20 PM on Thursday 23 Oct 2014 (Local Time) from EGPF Reporting Station
Broken Clouds Broken Clouds  
Wind Chill: 54°   Ceiling: 2000
Heat Index: 54°   Visibility: 6mi
Dew Point: 50°   Wind: 9mph
Humidity: 88%   Direction: 260°W
Pressure: 29.71"   Gusts: NA
Location:  55.75°N, 4.69°W
Report Text: EGPF 232020Z AUTO 26008KT 9999 BKN020 12/10 Q1006
Loading
Personal Weather Stations






























Interactive Weather Map New forecast layout! Learn more

10-Day Weather Forecast

Advertisements
Track Severe Weather on mobile